Time;durP1;ratioP1;P1;durP2;ratioP2;P2;SDS_P1;SDS_P2;PMS_P1;PMS_P2;Temp;Humidity;BMP_temperature;BMP_pressure;BME280_temperature;BME280_humidity;BME280_pressure;Samples;Min_cycle;Max_cycle;Signal;HPM_P1;HPM_P2
2023/10/09 00:03:27;;;;;;;16.90;5.90;;;;;;;5.71;57.18;99933.69;111477;1230;108743;-78
2023/10/09 00:05:58;;;;;;;16.40;6.00;;;;;;;5.72;57.04;99925.73;111303;1232;94561;-78
2023/10/09 00:08:37;;;;;;;13.20;5.30;;;;;;;5.71;57.22;99922.77;111417;1230;94227;-78
2023/10/09 00:11:19;;;;;;;12.60;4.70;;;;;;;5.70;57.18;99924.05;111522;1232;109807;-77
2023/10/09 00:13:52;;;;;;;15.00;5.30;;;;;;;5.69;57.36;99928.16;111434;1230;95350;-78
2023/10/09 00:16:26;;;;;;;16.50;5.20;;;;;;;5.71;57.43;99929.33;111414;1231;107456;-78
2023/10/09 00:21:42;;;;;;;12.20;4.80;;;;;;;5.72;57.50;99940.52;111478;1232;94477;-78
2023/10/09 00:24:13;;;;;;;15.30;4.90;;;;;;;5.71;57.37;99942.68;111393;1230;94287;-78
2023/10/09 00:26:45;;;;;;;9.90;4.50;;;;;;;5.71;57.53;99938.28;111458;1232;95298;-79
2023/10/09 00:29:21;;;;;;;10.60;4.30;;;;;;;5.70;57.52;99933.58;111281;1231;107856;-78
2023/10/09 00:32:07;;;;;;;12.70;4.50;;;;;;;5.70;57.53;99934.80;111390;1230;94218;-78
2023/10/09 00:34:39;;;;;;;14.50;4.80;;;;;;;5.68;57.60;99929.43;111324;1231;94248;-78
2023/10/09 00:37:16;;;;;;;14.10;4.80;;;;;;;5.68;57.61;99928.00;111398;1236;109779;-78
2023/10/09 00:39:43;;;;;;;11.20;4.00;;;;;;;5.70;57.65;99933.05;111410;1230;95128;-78
2023/10/09 00:42:15;;;;;;;14.80;4.90;;;;;;;5.72;57.69;99934.73;111374;1230;107569;-78
2023/10/09 00:44:53;;;;;;;13.30;4.50;;;;;;;5.72;57.66;99930.13;111320;1232;94606;-79
2023/10/09 00:47:26;;;;;;;12.30;4.50;;;;;;;5.73;57.77;99923.44;111417;1231;94192;-78
2023/10/09 00:50:00;;;;;;;12.30;4.70;;;;;;;5.70;57.88;99920.38;111442;1232;108588;-78
2023/10/09 00:52:34;;;;;;;14.90;5.80;;;;;;;5.70;57.76;99920.36;111434;1232;95411;-78
2023/10/09 00:55:07;;;;;;;13.00;4.80;;;;;;;5.70;57.85;99916.86;111419;1231;107305;-78
2023/10/09 00:57:37;;;;;;;13.50;5.60;;;;;;;5.68;57.81;99918.53;111412;1230;94337;-78
2023/10/09 01:00:26;;;;;;;13.70;4.90;;;;;;;5.68;58.00;99920.64;111388;1230;94499;-78
2023/10/09 01:11:18;;;;;;;14.00;4.90;;;;;;;5.67;58.07;99916.63;111347;1232;94646;-78
2023/10/09 01:16:18;;;;;;;15.80;5.00;;;;;;;5.72;58.23;99903.75;111346;1230;110612;-77
2023/10/09 01:18:51;;;;;;;13.00;4.90;;;;;;;5.72;58.15;99900.73;111339;1235;94610;-78
2023/10/09 01:21:24;;;;;;;16.00;4.80;;;;;;;5.72;58.15;99906.21;111437;1231;107580;-78
2023/10/09 01:24:08;;;;;;;12.90;4.80;;;;;;;5.74;58.29;99917.39;111300;1230;94511;-78
2023/10/09 01:26:39;;;;;;;16.00;5.30;;;;;;;5.75;58.17;99923.69;111383;1230;94177;-78
2023/10/09 01:29:14;;;;;;;14.50;4.60;;;;;;;5.74;58.14;99922.48;111353;1230;109998;-77
2023/10/09 01:32:00;;;;;;;12.90;4.50;;;;;;;5.74;58.28;99920.22;111278;1230;96528;-78
2023/10/09 01:34:54;;;;;;;10.50;4.40;;;;;;;5.73;58.44;99913.55;111388;1230;108276;-78
2023/10/09 01:37:30;;;;;;;14.90;4.80;;;;;;;5.74;58.39;99909.98;111362;1231;94193;-78
2023/10/09 01:40:35;;;;;;;11.70;4.50;;;;;;;5.74;58.48;99904.55;111417;1237;94342;-78
2023/10/09 01:43:03;;;;;;;15.50;4.50;;;;;;;5.71;58.50;99901.30;111483;1230;109849;-78
2023/10/09 01:45:41;;;;;;;12.10;4.70;;;;;;;5.71;58.49;99894.09;111458;1232;95759;-78
2023/10/09 01:48:09;;;;;;;12.10;4.50;;;;;;;5.70;58.60;99893.27;111440;1230;106981;-78
2023/10/09 01:50:36;;;;;;;11.40;3.90;;;;;;;5.73;58.54;99897.55;111284;1232;94207;-78
2023/10/09 01:53:08;;;;;;;13.20;4.10;;;;;;;5.73;58.47;99893.30;111326;1238;94538;-78
2023/10/09 01:55:40;;;;;;;11.40;4.10;;;;;;;5.72;58.49;99890.36;111308;1231;94168;-78
2023/10/09 01:58:27;;;;;;;12.70;4.60;;;;;;;5.74;58.53;99886.75;111366;1232;96596;-78
2023/10/09 02:00:56;;;;;;;12.90;4.10;;;;;;;5.76;58.62;99878.23;111404;1230;107495;-78
2023/10/09 02:03:24;;;;;;;14.00;4.90;;;;;;;5.76;58.71;99874.03;111309;1230;94521;-78
2023/10/09 02:05:53;;;;;;;12.70;4.30;;;;;;;5.78;58.74;99871.47;111437;1230;95008;-77
2023/10/09 02:08:35;;;;;;;13.90;3.90;;;;;;;5.81;58.73;99866.94;111406;1230;109698;-78
2023/10/09 02:11:02;;;;;;;12.50;4.40;;;;;;;5.83;58.74;99866.89;111459;1234;95069;-79
2023/10/09 02:13:41;;;;;;;10.70;4.10;;;;;;;5.85;58.92;99860.46;111270;1232;94176;-79
2023/10/09 02:16:14;;;;;;;12.50;3.90;;;;;;;5.86;58.82;99860.80;111432;1231;94491;-78
2023/10/09 02:18:58;;;;;;;12.00;4.00;;;;;;;5.88;58.87;99861.05;111331;1230;94691;-78
2023/10/09 02:21:39;;;;;;;12.70;5.60;;;;;;;5.91;59.00;99860.04;111438;1230;109731;-78
2023/10/09 02:24:09;;;;;;;15.40;5.40;;;;;;;5.92;58.89;99858.58;111424;1232;94255;-78
2023/10/09 02:29:26;;;;;;;12.10;4.80;;;;;;;5.88;58.82;99850.86;111341;1230;94615;-78
2023/10/09 02:32:00;;;;;;;12.60;4.90;;;;;;;5.85;58.91;99847.45;111461;1230;94573;-78
2023/10/09 02:34:28;;;;;;;13.00;4.40;;;;;;;5.83;58.94;99844.52;111441;1230;108911;-78
2023/10/09 02:36:58;;;;;;;10.10;4.10;;;;;;;5.81;58.96;99843.88;111401;1230;94508;-78
2023/10/09 02:39:28;;;;;;;13.90;4.20;;;;;;;5.79;59.08;99849.05;111341;1230;108778;-78
2023/10/09 02:44:49;;;;;;;11.30;4.70;;;;;;;5.80;59.18;99850.11;111538;1230;94588;-78
2023/10/09 02:47:29;;;;;;;12.50;4.10;;;;;;;5.73;59.09;99844.03;111458;1230;109355;-78
2023/10/09 02:50:06;;;;;;;10.90;4.00;;;;;;;5.65;59.05;99839.25;111470;1230;96621;-78
2023/10/09 02:52:42;;;;;;;13.40;4.20;;;;;;;5.61;59.19;99841.20;111529;1230;108092;-78
2023/10/09 02:55:13;;;;;;;11.90;4.50;;;;;;;5.58;59.22;99840.57;111371;1230;94497;-79
2023/10/09 02:57:41;;;;;;;11.60;3.80;;;;;;;5.59;59.21;99839.99;111359;1230;94222;-77
2023/10/09 03:00:18;;;;;;;11.80;4.40;;;;;;;5.61;59.22;99835.16;111409;1230;109801;-78
2023/10/09 03:02:49;;;;;;;14.10;4.10;;;;;;;5.61;59.32;99839.95;111455;1230;95508;-78
2023/10/09 03:05:32;;;;;;;10.70;3.80;;;;;;;5.59;59.23;99832.44;111408;1230;106988;-78
2023/10/09 03:07:59;;;;;;;10.70;4.00;;;;;;;5.58;59.37;99842.67;111452;1230;94430;-78
2023/10/09 03:10:26;;;;;;;12.60;4.40;;;;;;;5.59;59.36;99847.77;111445;1230;95038;-78
2023/10/09 03:12:55;;;;;;;10.50;4.10;;;;;;;5.59;59.30;99843.53;111375;1230;94256;-78
2023/10/09 03:15:22;;;;;;;10.70;4.40;;;;;;;5.58;59.38;99843.21;111400;1230;95326;-78
2023/10/09 03:17:49;;;;;;;12.70;4.60;;;;;;;5.56;59.33;99839.08;111310;1230;94554;-78
2023/10/09 03:20:17;;;;;;;11.30;4.30;;;;;;;5.56;59.48;99835.92;111373;1230;94662;-78
2023/10/09 03:22:47;;;;;;;16.60;4.90;;;;;;;5.54;59.50;99838.45;111384;1230;94360;-78
2023/10/09 03:25:17;;;;;;;12.40;4.10;;;;;;;5.54;59.54;99834.24;111362;1236;109662;-77
2023/10/09 03:27:45;;;;;;;11.80;4.10;;;;;;;5.55;59.50;99834.71;111395;1230;94586;-78
2023/10/09 03:30:22;;;;;;;11.30;3.70;;;;;;;5.53;59.47;99839.20;111322;1230;108085;-77
2023/10/09 03:32:51;;;;;;;10.90;3.70;;;;;;;5.50;59.55;99835.62;111374;1230;94452;-78
2023/10/09 03:35:33;;;;;;;10.10;3.90;;;;;;;5.49;59.61;99829.31;111409;1231;94198;-77
2023/10/09 03:38:11;;;;;;;8.50;3.70;;;;;;;5.48;59.63;99827.79;111330;1230;109741;-78
2023/10/09 03:40:42;;;;;;;10.00;3.90;;;;;;;5.46;59.68;99823.30;111354;1230;95536;-78
2023/10/09 03:43:16;;;;;;;10.80;3.90;;;;;;;5.46;59.62;99820.33;111383;1230;106965;-78
2023/10/09 03:45:54;;;;;;;14.20;4.20;;;;;;;5.44;59.69;99818.61;111289;1230;94588;-78
2023/10/09 03:48:22;;;;;;;9.10;3.90;;;;;;;5.43;59.71;99809.51;111488;1230;94197;-78
2023/10/09 03:51:09;;;;;;;9.80;3.50;;;;;;;5.44;59.82;99807.73;111489;1231;108762;-80
2023/10/09 03:53:36;;;;;;;9.60;3.50;;;;;;;5.40;59.76;99800.64;111464;1230;95176;-78
2023/10/09 03:56:15;;;;;;;10.90;3.50;;;;;;;5.37;59.83;99792.67;111436;1230;107150;-77
2023/10/09 03:58:56;;;;;;;10.80;4.10;;;;;;;5.38;59.81;99789.84;111489;1230;94232;-78
2023/10/09 04:06:10;;;;;;;;;;;;;;;;;;;;;
2023/10/09 04:10:42;;;;;;;;;;;;;;;;;;;;;
2023/10/09 04:18:44;;;;;;;10.40;4.00;;;;;;;5.36;60.13;99790.95;111820;1230;94115;-77
2023/10/09 04:21:27;;;;;;;10.30;3.70;;;;;;;5.32;60.09;99786.17;111483;1230;94489;-77
2023/10/09 04:58:49;;;;;;;;;;;;;;;;;;;;;
2023/10/09 05:15:04;;;;;;;11.00;3.60;;;;;;;5.79;60.92;99762.30;109228;1254;107485;-82
2023/10/09 05:30:43;;;;;;;;;;;;;;;;;;;;;
2023/10/09 05:35:15;;;;;;;;;;;;;;;;;;;;;
2023/10/09 05:38:40;;;;;;;;;;;;;;;;;;;;;
2023/10/09 06:43:11;;;;;;;;;;;;;;;;;;;;;
2023/10/09 06:55:11;;;;;;;;;;;;;;;;;;;;;
2023/10/09 10:29:16;;;;;;;;;;;;;;;;;;;;;
2023/10/09 11:34:16;;;;;;;6.30;2.80;;;;;;;10.46;61.47;99465.38;106334;1279;107628;31
2023/10/09 12:46:51;;;;;;;;;;;;;;;;;;;;;
2023/10/09 12:51:22;;;;;;;;;;;;;;;;;;;;;
2023/10/09 13:04:42;;;;;;;;;;;;;;;;;;;;;
2023/10/09 13:20:33;;;;;;;;;;;;;;;;;;;;;
2023/10/09 13:24:38;;;;;;;12.20;3.90;;;;;;;10.29;60.68;99328.12;105439;1272;108596;-82
2023/10/09 13:32:49;;;;;;;;;;;;;;;;;;;;;
2023/10/09 13:37:27;;;;;;;8.60;2.90;;;;;;;10.24;60.74;99328.08;105525;1263;95593;-80
2023/10/09 13:50:31;;;;;;;;;;;;;;;;;;;;;
2023/10/09 14:22:10;;;;;;;18.30;6.70;;;;;;;10.35;60.57;99303.79;107921;1263;646290;-90
2023/10/09 14:25:26;;;;;;;;;;;;;;;;;;;;;
2023/10/09 14:29:00;;;;;;;;;;;;;;;;;;;;;
2023/10/09 14:47:55;;;;;;;21.30;7.10;;;;;;;9.62;61.10;99329.13;109692;1244;95903;-91
2023/10/09 14:54:15;;;;;;;;;;;;;;;;;;;;;
2023/10/09 15:01:18;;;;;;;36.30;17.00;;;;;;;9.37;61.02;99307.05;109972;1237;108723;-91
2023/10/09 15:07:24;;;;;;;13.30;4.70;;;;;;;9.29;61.14;99309.98;109756;1237;106134;-90
2023/10/09 15:17:40;;;;;;;8.20;3.40;;;;;;;9.16;61.21;99312.75;109913;1237;107134;-91
2023/10/09 15:23:20;;;;;;;13.00;5.20;;;;;;;9.10;61.23;99298.42;109555;1244;107087;-91
2023/10/09 15:29:42;;;;;;;12.60;4.30;;;;;;;8.94;61.23;99289.16;109313;1244;95254;-91
2023/10/09 15:32:22;;;;;;;15.00;5.70;;;;;;;8.93;61.33;99292.59;108447;1240;108099;-91
2023/10/09 15:36:08;;;;;;;13.90;4.90;;;;;;;8.91;61.41;99291.51;108624;1247;95403;-91
2023/10/09 15:39:21;;;;;;;;;;;;;;;;;;;;;
2023/10/09 15:42:34;;;;;;;17.60;6.60;;;;;;;8.92;61.53;99279.59;109380;1238;95067;-92
2023/10/09 15:52:37;;;;;;;16.00;5.90;;;;;;;8.83;61.38;99272.18;109108;1234;95775;-92
2023/10/09 15:55:53;;;;;;;15.40;6.10;;;;;;;8.82;61.54;99270.69;109239;1246;107571;-92
2023/10/09 15:58:57;;;;;;;17.50;6.40;;;;;;;8.78;61.54;99271.96;109320;1235;95231;-92
2023/10/09 16:01:42;;;;;;;;;;;;;;;;;;;;;
2023/10/09 16:08:14;;;;;;;20.90;8.40;;;;;;;8.70;61.62;99276.38;110561;1234;95121;-90
2023/10/09 16:10:47;;;;;;;20.90;8.30;;;;;;;8.70;61.74;99282.32;109507;1234;107182;-91
2023/10/09 16:13:17;;;;;;;22.70;9.50;;;;;;;8.71;61.70;99289.33;109004;1241;94321;-91
2023/10/09 16:15:44;;;;;;;22.60;9.20;;;;;;;8.72;61.79;99285.94;111403;1233;92862;-91
2023/10/09 16:18:48;;;;;;;20.10;8.60;;;;;;;8.73;61.81;99280.77;111685;1233;92832;-91
2023/10/09 16:21:15;;;;;;;16.90;7.70;;;;;;;8.72;61.81;99294.59;111675;1233;93658;-91
2023/10/09 16:23:42;;;;;;;17.10;7.30;;;;;;;8.69;61.80;99306.45;111318;1234;92892;-91
2023/10/09 16:26:14;;;;;;;19.00;7.40;;;;;;;8.67;61.78;99312.42;111353;1233;92839;-90
2023/10/09 16:28:42;;;;;;;20.10;8.30;;;;;;;8.68;61.83;99320.29;111669;1233;92833;-90
2023/10/09 16:31:18;;;;;;;19.20;8.10;;;;;;;8.71;61.79;99321.58;111411;1233;107109;-91
2023/10/09 16:34:06;;;;;;;17.70;6.40;;;;;;;8.71;61.98;99325.46;111720;1234;95267;-91
2023/10/09 16:36:35;;;;;;;19.10;8.20;;;;;;;8.72;61.98;99326.77;111250;1234;106791;-92
2023/10/09 16:39:18;;;;;;;18.70;8.50;;;;;;;8.73;61.99;99327.43;111424;1233;92829;-90
2023/10/09 16:41:57;;;;;;;;;;;;;;;8.73;62.04;99324.63;111495;1234;92827;-90
2023/10/09 16:44:24;;;;;;;14.50;5.80;;;;;;;8.70;62.23;99326.02;111445;1233;108617;-91
2023/10/09 16:46:54;;;;;;;15.70;6.10;;;;;;;8.69;62.07;99325.73;111477;1233;92890;-90
2023/10/09 16:49:25;;;;;;;14.50;5.70;;;;;;;8.70;62.14;99327.25;111281;1233;105740;-90
2023/10/09 16:51:54;;;;;;;13.00;5.60;;;;;;;8.72;62.17;99324.46;111466;1233;92824;-90
2023/10/09 16:54:22;;;;;;;16.80;6.70;;;;;;;8.72;62.14;99323.09;111369;1233;92800;-90
2023/10/09 16:57:30;;;;;;;14.90;6.30;;;;;;;8.71;62.19;99331.96;111484;1234;108491;-90
2023/10/09 16:59:57;;;;;;;14.50;5.90;;;;;;;8.72;62.19;99337.75;111562;1234;95365;-91
2023/10/09 17:02:27;;;;;;;15.20;5.40;;;;;;;8.73;62.26;99333.80;111368;1233;107263;-91
2023/10/09 17:04:57;;;;;;;15.50;5.80;;;;;;;8.75;62.30;99329.93;111467;1234;92881;-91
2023/10/09 17:07:27;;;;;;;17.30;6.20;;;;;;;8.76;62.29;99332.89;111692;1234;93363;-91
2023/10/09 17:09:57;;;;;;;13.50;5.60;;;;;;;8.77;62.35;99336.02;111369;1235;108645;-91
2023/10/09 17:12:29;;;;;;;13.50;5.30;;;;;;;8.78;62.36;99337.16;111502;1233;95249;-91
2023/10/09 17:14:57;;;;;;;16.80;6.00;;;;;;;8.79;62.40;99339.59;111485;1234;107491;-91
2023/10/09 17:17:25;;;;;;;17.20;6.10;;;;;;;8.81;62.46;99349.73;111676;1233;92799;-91
2023/10/09 17:19:54;;;;;;;14.80;5.50;;;;;;;8.83;62.41;99357.27;111269;1234;92831;-91
2023/10/09 17:22:25;;;;;;;16.70;5.90;;;;;;;8.83;62.53;99357.95;111663;1233;108384;-91
2023/10/09 17:24:55;;;;;;;16.70;6.10;;;;;;;8.82;62.55;99362.61;111650;1233;95323;-91
2023/10/09 17:27:22;;;;;;;18.20;6.60;;;;;;;8.82;62.50;99361.92;111347;1234;106516;-91
2023/10/09 17:29:49;;;;;;;17.60;7.00;;;;;;;8.82;62.62;99360.11;111423;1233;92889;-91
2023/10/09 17:32:20;;;;;;;20.20;7.70;;;;;;;8.82;62.73;99358.37;111682;1233;92771;-91
2023/10/09 17:34:47;;;;;;;17.50;7.20;;;;;;;8.83;62.66;99356.04;111317;1233;108385;-91
2023/10/09 17:37:22;;;;;;;20.50;7.80;;;;;;;8.82;62.73;99355.02;111551;1235;92891;-91
2023/10/09 17:40:29;;;;;;;17.70;7.30;;;;;;;8.80;62.64;99358.30;111521;1233;107602;-92
2023/10/09 17:43:15;;;;;;;15.70;6.20;;;;;;;8.77;62.75;99355.63;111458;1234;92792;-92
2023/10/09 17:45:47;;;;;;;15.10;5.50;;;;;;;8.76;62.69;99359.94;111685;1233;92771;-91
2023/10/09 17:48:17;;;;;;;15.70;6.30;;;;;;;8.73;62.65;99361.90;111644;1234;108427;-90
2023/10/09 17:50:44;;;;;;;17.40;7.00;;;;;;;8.71;62.77;99366.08;111435;1233;95268;-91
2023/10/09 17:53:12;;;;;;;18.10;7.20;;;;;;;8.71;62.83;99374.05;111432;1233;107579;-91
2023/10/09 17:55:44;;;;;;;19.60;8.30;;;;;;;8.71;62.84;99375.49;111451;1234;92806;-92
2023/10/09 17:58:14;;;;;;;21.90;7.50;;;;;;;8.67;62.79;99369.34;111336;1233;92798;-91
2023/10/09 18:00:45;;;;;;;16.50;6.80;;;;;;;8.66;62.84;99365.71;111539;1233;108518;-92
2023/10/09 18:03:15;;;;;;;18.80;7.00;;;;;;;8.70;62.95;99363.50;111628;1234;95689;-92
2023/10/09 18:06:12;;;;;;;17.90;7.30;;;;;;;8.74;63.01;99367.33;111481;1234;107132;-92
2023/10/09 18:08:39;;;;;;;25.40;7.30;;;;;;;8.75;63.02;99360.02;111447;1233;93276;-91
2023/10/09 18:11:06;;;;;;;16.10;6.40;;;;;;;8.72;62.97;99353.46;111368;1233;92901;-91
2023/10/09 18:13:36;;;;;;;18.40;6.80;;;;;;;8.68;63.05;99351.79;111439;1234;92910;-92
2023/10/09 18:16:12;;;;;;;16.70;6.70;;;;;;;8.67;63.15;99352.19;111371;1233;95405;-91
2023/10/09 18:18:40;;;;;;;18.00;7.00;;;;;;;8.69;63.16;99356.36;111466;1234;107180;-91
2023/10/09 18:21:08;;;;;;;24.20;11.00;;;;;;;8.69;63.23;99359.48;111219;1234;92766;-89
2023/10/09 18:23:36;;;;;;;26.10;11.10;;;;;;;8.67;63.10;99369.19;111656;1233;92839;-91
2023/10/09 18:26:05;;;;;;;26.50;12.70;;;;;;;8.68;63.06;99375.13;111697;1234;107968;-91
2023/10/09 18:28:36;;;;;;;24.60;11.20;;;;;;;8.69;63.11;99369.02;111462;1233;95258;-91
2023/10/09 18:31:09;;;;;;;25.30;11.60;;;;;;;8.68;63.24;99364.53;111643;1234;107671;-90
2023/10/09 18:34:05;;;;;;;21.80;9.10;;;;;;;8.66;63.29;99370.44;111506;1234;92866;-91
2023/10/09 18:36:56;;;;;;;24.40;10.90;;;;;;;8.66;63.30;99367.80;111566;1233;93268;-91
2023/10/09 18:39:29;;;;;;;24.20;9.60;;;;;;;8.66;63.18;99367.63;111499;1234;108431;-91
2023/10/09 18:42:15;;;;;;;25.10;10.50;;;;;;;8.66;63.25;99365.89;111554;1233;96519;-91
2023/10/09 18:44:43;;;;;;;22.20;9.80;;;;;;;8.67;63.35;99367.92;111415;1234;92844;-91
2023/10/09 18:47:18;;;;;;;28.30;11.60;;;;;;;8.68;63.35;99370.88;111454;1234;92881;-91
2023/10/09 18:50:03;;;;;;;23.90;11.20;;;;;;;8.68;63.42;99362.73;111525;1233;92830;-91
2023/10/09 18:52:33;;;;;;;24.60;11.20;;;;;;;8.66;63.39;99355.94;111345;1234;108499;-91
2023/10/09 18:55:01;;;;;;;24.40;11.60;;;;;;;8.66;63.40;99354.02;111494;1233;95623;-92
2023/10/09 18:57:28;;;;;;;24.60;11.20;;;;;;;8.66;63.55;99353.84;111282;1233;106538;-91
2023/10/09 19:00:01;;;;;;;28.00;11.20;;;;;;;8.66;63.55;99360.04;111523;1234;94660;-91
2023/10/09 19:02:28;;;;;;;22.20;10.90;;;;;;;8.63;63.51;99360.34;111325;1234;94181;-91
2023/10/09 19:05:03;;;;;;;24.40;11.00;;;;;;;8.61;63.59;99356.03;111498;1233;94254;-92
2023/10/09 19:08:07;;;;;;;22.70;10.40;;;;;;;8.60;63.65;99362.85;111598;1233;95271;-92
2023/10/09 19:10:37;;;;;;;30.40;11.60;;;;;;;8.60;63.65;99365.67;111566;1234;107486;-91
2023/10/09 19:13:09;;;;;;;26.10;11.30;;;;;;;8.59;63.59;99370.13;111342;1234;94339;-91
2023/10/09 19:15:51;;;;;;;29.20;12.50;;;;;;;8.58;63.57;99371.96;111531;1233;94201;-91
2023/10/09 19:18:20;;;;;;;25.60;11.40;;;;;;;8.53;63.50;99362.20;111509;1234;108143;-91
2023/10/09 19:24:51;;;;;;;24.10;9.50;;;;;;;8.43;63.57;99363.80;110326;1246;108524;-92
2023/10/09 19:27:25;;;;;;;21.80;9.00;;;;;;;8.40;63.73;99362.02;110478;1246;94155;-91
2023/10/09 19:30:16;;;;;;;23.10;9.30;;;;;;;8.37;63.67;99359.59;110054;1251;94151;-91
2023/10/09 19:32:48;;;;;;;19.80;8.50;;;;;;;8.33;63.66;99358.59;109756;1250;109386;-92
2023/10/09 19:35:15;;;;;;;22.90;9.90;;;;;;;8.29;63.72;99362.00;109693;1251;94915;-91
2023/10/09 19:37:46;;;;;;;21.40;9.00;;;;;;;8.25;63.84;99368.56;109978;1251;94212;-91
2023/10/09 19:40:16;;;;;;;20.60;9.20;;;;;;;8.23;63.82;99374.15;109488;1250;94196;-91
2023/10/09 19:42:43;;;;;;;20.70;9.50;;;;;;;8.22;63.87;99378.30;109718;1250;94202;-92
2023/10/09 19:45:19;;;;;;;20.40;8.20;;;;;;;8.21;63.83;99380.08;110169;1251;94263;-91
2023/10/09 19:48:43;;;;;;;;;;;;;;;;;;;;;
2023/10/09 19:51:17;;;;;;;13.80;5.40;;;;;;;8.15;63.93;99384.33;110041;1250;106977;-91
2023/10/09 19:53:45;;;;;;;15.50;6.30;;;;;;;8.11;63.87;99384.75;109761;1251;94323;-91
2023/10/09 19:56:12;;;;;;;14.30;5.30;;;;;;;8.08;63.84;99390.42;110043;1250;94215;-91
2023/10/09 19:58:40;;;;;;;12.20;4.90;;;;;;;8.04;63.85;99388.14;110026;1251;94404;-91
2023/10/09 20:01:13;;;;;;;14.20;5.40;;;;;;;7.96;63.86;99391.59;110000;1251;95582;-91
2023/10/09 20:03:43;;;;;;;14.80;5.40;;;;;;;7.90;64.07;99392.98;109777;1251;106467;-92
2023/10/09 20:06:15;;;;;;;13.50;5.50;;;;;;;7.88;64.07;99396.64;110011;1250;94212;-92
2023/10/09 20:08:44;;;;;;;14.50;5.80;;;;;;;7.92;64.27;99394.86;109826;1251;94242;-92
2023/10/09 20:11:14;;;;;;;17.40;7.00;;;;;;;7.96;64.15;99398.11;109717;1250;109253;-92
2023/10/09 20:14:23;;;;;;;18.00;6.50;;;;;;;8.02;64.39;99391.10;109990;1250;95503;-92
2023/10/09 20:17:18;;;;;;;15.10;5.70;;;;;;;8.09;64.45;99397.08;110103;1251;107772;-92
2023/10/09 20:19:51;;;;;;;20.50;6.50;;;;;;;8.12;64.37;99397.27;110047;1251;94208;-91
2023/10/09 20:22:19;;;;;;;22.60;6.90;;;;;;;8.16;64.49;99403.69;109816;1251;94172;-92
2023/10/09 20:24:47;;;;;;;22.30;8.70;;;;;;;8.19;64.42;99404.42;109996;1251;109575;-92
2023/10/09 20:27:40;;;;;;;22.20;8.10;;;;;;;8.21;64.50;99402.38;109837;1251;94319;-91
2023/10/09 20:30:16;;;;;;;20.70;8.80;;;;;;;8.24;64.52;99397.98;109533;1254;106212;-90
2023/10/09 20:32:44;;;;;;;21.30;7.70;;;;;;;8.23;64.54;99395.90;109300;1254;94194;-90
2023/10/09 20:35:15;;;;;;;20.30;7.70;;;;;;;8.17;64.54;99396.98;109223;1254;94356;-91
2023/10/09 20:37:45;;;;;;;19.90;7.90;;;;;;;8.13;64.33;99395.44;109481;1254;108445;-92
2023/10/09 20:40:20;;;;;;;21.00;8.40;;;;;;;8.12;64.53;99395.48;109263;1254;95442;-91
2023/10/09 20:42:49;;;;;;;23.00;9.50;;;;;;;8.15;64.69;99400.09;109268;1254;107460;-90
2023/10/09 20:45:37;;;;;;;22.70;8.60;;;;;;;8.20;64.68;99399.06;109243;1254;94219;-90
2023/10/09 20:48:08;;;;;;;20.10;7.90;;;;;;;8.26;64.74;99402.80;109376;1254;94222;-91
2023/10/09 20:54:12;;;;;;;20.10;9.20;;;;;;;8.29;64.75;99404.55;108489;1265;95471;-92
2023/10/09 20:58:04;;;;;;;19.80;8.10;;;;;;;8.36;64.86;99406.30;102429;1290;635980;-80
2023/10/09 21:00:37;;;;;;;19.60;8.00;;;;;;;8.35;64.81;99406.17;105416;1261;94408;-78
2023/10/09 21:03:05;;;;;;;19.40;8.20;;;;;;;8.36;64.87;99403.10;105410;1265;94377;-79
2023/10/09 21:05:36;;;;;;;23.40;9.60;;;;;;;8.35;64.89;99400.65;105087;1263;107448;-80
2023/10/09 21:08:07;;;;;;;20.70;8.40;;;;;;;8.34;64.81;99401.98;105552;1266;95369;-80
2023/10/09 21:10:51;;;;;;;17.80;7.10;;;;;;;8.33;64.83;99407.33;104850;1266;172599;-81
2023/10/09 21:13:23;;;;;;;17.70;7.30;;;;;;;8.33;64.98;99413.89;108367;1254;92186;-79
2023/10/09 21:16:02;;;;;;;19.10;7.10;;;;;;;8.30;64.96;99411.02;108468;1254;92163;-80
2023/10/09 21:18:38;;;;;;;20.30;8.30;;;;;;;8.29;65.09;99414.63;108716;1250;107221;-79
2023/10/09 21:21:12;;;;;;;15.60;6.90;;;;;;;8.28;65.15;99416.27;108723;1251;96176;-79
2023/10/09 21:23:44;;;;;;;19.00;7.20;;;;;;;8.29;65.06;99412.71;108687;1251;107747;-80
2023/10/09 21:26:21;;;;;;;16.50;7.40;;;;;;;8.29;65.08;99415.88;108652;1251;92936;-79
2023/10/09 21:28:51;;;;;;;21.40;8.50;;;;;;;8.31;65.00;99414.71;108662;1256;93009;-79
2023/10/09 21:31:22;;;;;;;21.70;9.00;;;;;;;8.30;65.05;99415.44;108453;1256;109458;-79
2023/10/09 21:33:51;;;;;;;22.20;9.90;;;;;;;8.30;65.06;99412.08;108646;1256;95290;-79
2023/10/09 21:36:19;;;;;;;22.20;9.80;;;;;;;8.29;65.15;99416.23;108619;1251;107628;-79
2023/10/09 21:38:50;;;;;;;24.10;10.40;;;;;;;8.28;65.07;99417.89;108548;1251;93086;-80
2023/10/09 21:41:21;;;;;;;23.60;10.10;;;;;;;8.24;65.02;99419.16;108759;1251;93347;-79
2023/10/09 21:43:53;;;;;;;22.40;10.60;;;;;;;8.19;65.13;99418.35;108699;1251;108471;-80
2023/10/09 21:46:25;;;;;;;22.50;10.20;;;;;;;8.15;65.13;99419.85;108685;1251;94551;-79
2023/10/09 21:48:54;;;;;;;21.60;10.20;;;;;;;8.12;65.13;99419.49;108602;1251;107407;-81
2023/10/09 21:51:26;;;;;;;23.80;10.80;;;;;;;8.08;65.19;99424.29;108639;1251;93240;-80
2023/10/09 21:53:57;;;;;;;22.60;10.70;;;;;;;8.03;65.05;99424.58;108704;1250;93257;-80
2023/10/09 21:56:30;;;;;;;21.40;9.80;;;;;;;7.99;65.06;99423.40;108568;1251;108612;-80
2023/10/09 21:58:59;;;;;;;22.00;9.80;;;;;;;7.89;65.02;99420.58;108485;1251;94180;-81
2023/10/09 22:01:27;;;;;;;21.00;9.70;;;;;;;7.81;64.92;99419.43;108685;1251;106571;-80
2023/10/09 22:03:57;;;;;;;21.60;9.40;;;;;;;7.74;65.13;99423.52;108508;1251;93685;-80
2023/10/09 22:07:13;;;;;;;22.30;9.50;;;;;;;7.70;65.13;99424.64;108651;1251;93242;-80
2023/10/09 22:10:06;;;;;;;18.90;8.20;;;;;;;7.64;65.24;99420.39;108741;1251;108570;-80
2023/10/09 22:12:49;;;;;;;16.80;7.50;;;;;;;7.59;65.18;99421.33;108648;1251;95019;-80
2023/10/09 22:15:18;;;;;;;;;;;;;;;7.55;65.21;99421.74;108586;1251;107080;-80
2023/10/09 22:17:46;;;;;;;17.20;7.50;;;;;;;7.51;65.27;99430.11;108725;1251;93242;-80
2023/10/09 22:20:23;;;;;;;19.10;7.90;;;;;;;7.47;65.36;99430.64;108572;1251;93514;-80
2023/10/09 22:22:56;;;;;;;17.40;7.80;;;;;;;7.48;65.22;99434.66;108631;1256;108755;-80
2023/10/09 22:25:35;;;;;;;16.90;7.20;;;;;;;7.49;65.35;99433.71;108617;1251;95566;-79
2023/10/09 22:28:10;;;;;;;19.70;6.90;;;;;;;7.52;65.48;99446.64;108607;1251;107730;-79
2023/10/09 22:30:43;;;;;;;15.90;7.00;;;;;;;7.50;65.26;99446.02;108573;1251;93032;-79
2023/10/09 22:33:19;;;;;;;17.10;6.90;;;;;;;7.44;65.09;99450.77;108731;1251;93773;-79
2023/10/09 22:35:55;;;;;;;18.60;7.30;;;;;;;7.33;65.41;99456.80;108476;1254;108702;-79
2023/10/09 22:38:29;;;;;;;18.70;7.60;;;;;;;7.35;65.48;99460.38;108553;1251;94756;-79
2023/10/09 22:40:58;;;;;;;18.50;7.00;;;;;;;7.37;65.29;99457.80;108634;1251;108189;-78
2023/10/09 22:43:31;;;;;;;20.80;8.30;;;;;;;7.43;65.53;99456.98;108678;1251;93176;-79
2023/10/09 22:46:07;;;;;;;23.70;9.70;;;;;;;7.46;65.62;99459.46;108613;1252;93942;-79
2023/10/09 22:48:48;;;;;;;19.10;8.50;;;;;;;7.50;65.67;99464.38;108739;1251;108556;-79
2023/10/09 22:51:23;;;;;;;21.20;8.90;;;;;;;7.53;65.66;99474.10;108659;1251;95212;-79
2023/10/09 22:53:52;;;;;;;23.20;9.00;;;;;;;7.54;65.50;99474.92;108699;1251;107608;-79
2023/10/09 22:56:21;;;;;;;20.40;9.10;;;;;;;7.54;65.69;99476.15;108613;1251;93247;-79
2023/10/09 22:58:55;;;;;;;19.30;7.90;;;;;;;7.54;65.60;99473.35;108648;1251;93049;-79
2023/10/09 23:01:28;;;;;;;20.80;8.20;;;;;;;7.46;65.49;99467.75;108707;1252;108157;-79
2023/10/09 23:04:09;;;;;;;19.90;8.60;;;;;;;7.38;65.66;99471.35;108638;1254;94732;-79
2023/10/09 23:06:44;;;;;;;19.90;8.60;;;;;;;7.39;65.78;99475.70;108695;1251;107653;-79
2023/10/09 23:09:30;;;;;;;20.60;8.90;;;;;;;7.41;65.69;99475.25;108684;1251;93235;-79
2023/10/09 23:12:07;;;;;;;21.40;9.70;;;;;;;7.39;65.63;99477.83;108683;1253;92926;-79
2023/10/09 23:14:39;;;;;;;22.80;9.60;;;;;;;7.41;65.90;99484.80;108704;1251;108549;-80
2023/10/09 23:17:07;;;;;;;22.20;10.10;;;;;;;7.45;65.98;99495.15;108667;1251;95408;-79
2023/10/09 23:22:14;;;;;;;23.90;9.80;;;;;;;7.51;65.93;99492.73;108683;1253;93413;-79